KE8DAF-13 Weather Reports


Display with metric or nautical units.
time (UTC)temp
F
wind
direction
speed
MPH
gust
MPH
rain 1hr
in
rain 24hr
in
rain mn
in
humidity
%
barometer
mb
20220516182159 53 30 5.0 11.0 0.00 0.00 0.00 67 1006.2
20220516181201 54 8 2.0 7.0 0.00 0.00 0.00 69 1005.7
20220516180159 54 27 3.0 6.0 0.00 0.00 0.00 68 1005.8
20220516175159 56 43 3.0 9.0 0.00 0.00 0.00 65 1005.8
20220516174201 56 26 4.0 9.0 0.00 0.00 0.00 66 1005.8
20220516173159 58 1 3.0 8.0 0.00 0.00 0.00 59 1005.7
20220516172159 58 358 3.0 9.0 0.00 0.00 0.00 61 1005.6
20220516171202 56 343 2.0 7.0 0.00 0.00 0.00 64 1005.6
20220516170159 56 352 2.0 7.0 0.00 0.00 0.00 67 1005.7
20220516165159 54 335 2.0 8.0 0.00 0.00 0.00 75 1005.8
20220516164201 54 22 3.0 8.0 0.00 0.00 0.00 68 1005.8
20220516163159 56 350 4.0 10.0 0.00 0.00 0.00 71 1005.9
20220516162159 56 336 3.0 9.0 0.00 0.00 0.00 69 1005.9
20220516161201 56 352 4.0 8.0 0.00 0.00 0.00 67 1006.0
20220516160159 55 325 4.0 13.0 0.00 0.00 0.00 70 1005.8
20220516155159 56 9 2.0 7.0 0.00 0.00 0.00 72 1005.8
20220516154201 57 344 3.0 7.0 0.00 0.00 0.00 65 1005.8
20220516153159 60 20 2.0 7.0 0.00 0.00 0.00 64 1005.6
20220516152159 59 21 2.0 7.0 0.00 0.00 0.00 64 1005.5
20220516151201 62 10 3.0 11.0 0.00 0.00 0.00 59 1005.5
20220516150159 66 294 3.0 7.0 0.00 0.00 0.00 58 1005.3
20220516145159 66 200 3.0 10.0 0.00 0.00 0.00 60 1005.2
20220516143159 65 248 7.0 14.0 0.00 0.00 0.00 62 1005.6
20220516142159 64 262 7.0 15.0 0.00 0.00 0.00 61 1005.6
20220516140159 62 237 6.0 11.0 0.00 0.00 0.00 64 1005.7
20220516135159 62 248 7.0 16.0 0.00 0.00 0.00 64 1005.7
20220516133159 62 238 6.0 14.0 0.00 0.00 0.00 63 1005.7
20220516132159 61 253 7.0 10.0 0.00 0.00 0.00 66 1005.7
20220516130200 61 240 7.0 11.0 0.00 0.00 0.00 64 1005.8
20220516125200 61 254 8.0 19.0 0.00 0.00 0.00 66 1005.9
20220516123200 59 276 8.0 12.0 0.00 0.00 0.00 67 1006.2
20220516122200 58 232 8.0 15.0 0.00 0.00 0.00 69 1006.3
20220516120200 56 252 5.0 13.0 0.00 0.00 0.00 70 1006.3
20220516115200 55 252 6.0 12.0 0.00 0.00 0.00 71 1006.3
20220516113200 55 258 2.0 8.0 0.00 0.00 0.00 71 1006.5
20220516112200 54 213 3.0 8.0 0.00 0.00 0.00 71 1006.5
20220516111200 55 228 2.0 6.0 0.00 0.00 0.00 71 1006.6
20220516110200 54 223 1.0 5.0 0.00 0.00 0.00 70 1006.6
20220516105200 54 263 2.0 5.0 0.00 0.03 0.00 70 1006.6
20220516104200 54 269 1.0 3.0 0.00 0.03 0.00 69 1006.5
20220516103200 54 283 1.0 4.0 0.00 0.03 0.00 70 1006.6
20220516102200 55 241 1.0 4.0 0.00 0.03 0.00 69 1006.5
20220516101200 54 286 4.0 7.0 0.00 0.03 0.00 68 1006.6
20220516100200 54 289 3.0 9.0 0.00 0.03 0.00 69 1006.6
20220516095200 54 283 3.0 6.0 0.00 0.03 0.00 69 1006.5
20220516094200 54 298 3.0 6.0 0.00 0.03 0.00 68 1006.6
20220516093200 54 291 2.0 5.0 0.00 0.03 0.00 69 1006.5
20220516092200 53 285 3.0 5.0 0.00 0.03 0.00 69 1006.5
20220516091200 53 269 3.0 6.0 0.00 0.03 0.00 70 1006.5
20220516090200 52 291 1.0 4.0 0.00 0.03 0.00 73 1006.5
20220516085200 52 265 0.0 1.0 0.00 0.03 0.00 74 1006.5
20220516084200 53 310 0.0 1.0 0.00 0.03 0.00 73 1006.5
20220516083200 53 286 1.0 2.0 0.00 0.03 0.00 72 1006.4
20220516082200 53 305 1.0 2.0 0.00 0.03 0.00 70 1006.5
20220516081200 53 287 1.0 2.0 0.00 0.03 0.00 69 1006.5
20220516080200 53 315 1.0 2.0 0.00 0.03 0.00 69 1006.8
20220516075200 53 304 1.0 2.0 0.00 0.03 0.00 69 1006.8
20220516074200 53 305 1.0 3.0 0.00 0.03 0.00 68 1006.8
20220516073200 52 273 2.0 3.0 0.00 0.03 0.00 67 1006.8
20220516072200 53 282 1.0 2.0 0.00 0.03 0.00 67 1007.2
20220516071200 52 320 2.0 5.0 0.00 0.03 0.00 67 1007.3
20220516070200 52 334 1.0 3.0 0.00 0.03 0.00 67 1007.3
20220516065200 52 279 0.0 2.0 0.00 0.03 0.00 67 1007.3
20220516064200 53 279 0.0 1.0 0.00 0.03 0.00 66 1007.4
20220516063200 53 279 0.0 1.0 0.00 0.03 0.00 65 1007.5
20220516062200 53 279 0.0 2.0 0.00 0.03 0.00 65 1007.6
20220516061200 53 279 1.0 4.0 0.00 0.03 0.00 63 1007.7
20220516060200 53 281 1.0 2.0 0.00 0.03 0.00 62 1007.8
20220516055200 54 281 2.0 4.0 0.00 0.03 0.00 61 1007.9
20220516054200 54 281 1.0 2.0 0.00 0.03 0.00 60 1008.1
20220516053200 54 281 2.0 5.0 0.00 0.03 0.00 59 1008.1
20220516052200 54 281 2.0 4.0 0.00 0.03 0.03 58 1008.1
20220516051200 54 281 3.0 5.0 0.00 0.03 0.03 58 1008.3
20220516050200 54 288 2.0 4.0 0.00 0.03 0.03 57 1008.3
20220516045200 54 288 3.0 6.0 0.00 0.03 0.03 58 1008.4
20220516044200 54 281 4.0 7.0 0.00 0.03 0.03 58 1008.4
20220516043200 54 282 4.0 6.0 0.00 0.03 0.03 58 1008.5
20220516042200 54 299 2.0 5.0 0.00 0.03 0.03 59 1008.4
20220516041200 54 301 2.0 4.0 0.00 0.03 0.03 59 1008.4
20220516040200 54 286 3.0 5.0 0.00 0.03 0.03 59 1008.5
20220516035200 54 289 2.0 5.0 0.00 0.03 0.03 60 1008.5
20220516034200 54 293 2.0 4.0 0.00 0.03 0.03 59 1008.7
20220516033200 55 294 2.0 4.0 0.00 0.03 0.03 59 1008.7
20220516032200 55 294 2.0 4.0 0.00 0.03 0.03 58 1008.8
20220516031200 56 295 2.0 4.0 0.00 0.03 0.03 56 1008.9
20220516030200 56 292 2.0 5.0 0.00 0.03 0.03 54 1008.9
20220516025200 57 325 1.0 3.0 0.00 0.03 0.03 52 1009.0
20220516024200 58 325 2.0 4.0 0.00 0.03 0.03 50 1009.0
20220516023200 58 331 2.0 7.0 0.00 0.03 0.03 49 1009.1
20220516022200 58 327 3.0 7.0 0.00 0.03 0.03 48 1009.1
20220516021200 58 331 3.0 9.0 0.00 0.03 0.03 49 1009.1
20220516020200 58 321 4.0 9.0 0.00 0.03 0.03 50 1009.0
20220516015200 58 355 4.0 11.0 0.00 0.03 0.03 50 1009.1
20220516014200 58 348 5.0 13.0 0.00 0.03 0.03 50 1009.0
20220516013200 58 336 5.0 12.0 0.00 0.03 0.03 49 1009.0
20220516012200 58 341 5.0 10.0 0.00 0.03 0.03 49 1008.9
20220516011200 59 328 4.0 12.0 0.00 0.03 0.03 49 1008.9
20220516010200 59 342 5.0 12.0 0.00 0.03 0.03 49 1008.8
20220516005200 59 324 4.0 14.0 0.00 0.03 0.03 50 1008.8
20220516004200 59 339 5.0 14.0 0.00 0.03 0.03 52 1008.8
20220516003200 60 340 3.0 9.0 0.00 0.03 0.03 53 1008.7
20220516002200 61 346 4.0 14.0 0.00 0.03 0.03 50 1008.6
20220516001200 61 343 3.0 11.0 0.00 0.03 0.03 52 1008.5
20220516000200 61 351 2.0 8.0 0.00 0.03 0.03 53 1008.6
20220515235200 60 2 2.0 8.0 0.00 0.03 0.03 54 1008.7
20220515234200 60 333 2.0 7.0 0.00 0.03 0.03 54 1008.6
20220515233201 60 358 3.0 10.0 0.00 0.03 0.03 52 1008.4
20220515232200 61 339 3.0 10.0 0.00 0.03 0.03 50 1008.4
20220515231200 61 337 3.0 7.0 0.00 0.03 0.03 50 1008.4
20220515230201 62 334 2.0 7.0 0.00 0.03 0.03 48 1008.5
20220515225201 64 343 3.0 8.0 0.00 0.03 0.03 45 1008.6
20220515224200 65 46 1.0 2.0 0.00 0.03 0.03 45 1008.5
20220515223201 65 46 0.0 3.0 0.00 0.03 0.03 47 1008.4
20220515222201 64 48 1.0 3.0 0.00 0.03 0.03 48 1008.5
20220515221201 63 42 2.0 4.0 0.00 0.03 0.03 49 1008.6
20220515220201 63 40 3.0 7.0 0.00 0.03 0.03 48 1008.6
20220515215201 64 19 3.0 7.0 0.00 0.03 0.03 47 1008.7
20220515214201 64 38 3.0 5.0 0.00 0.03 0.03 48 1008.7
20220515213201 63 34 3.0 7.0 0.00 0.03 0.03 50 1008.6
20220515212201 62 38 3.0 7.0 0.00 0.03 0.03 50 1008.8
20220515211201 62 61 2.0 8.0 0.00 0.03 0.03 54 1008.9
20220515210201 61 69 2.0 4.0 0.00 0.03 0.03 54 1008.9
20220515205201 60 94 2.0 5.0 0.00 0.06 0.03 55 1009.0
20220515204201 61 78 4.0 7.0 0.00 0.06 0.03 54 1009.2
20220515203201 67 35 4.0 8.0 0.00 0.06 0.03 43 1009.1
20220515202201 67 25 4.0 7.0 0.00 0.06 0.03 42 1009.1
20220515201201 68 34 3.0 8.0 0.00 0.06 0.03 42 1009.2
20220515200201 69 52 3.0 4.0 0.00 0.06 0.03 45 1009.3
20220515195201 69 40 2.0 4.0 0.00 0.23 0.03 46 1009.3
20220515194201 68 29 3.0 8.0 0.00 0.23 0.03 41 1009.5
20220515193203 69 352 2.0 5.0 0.00 0.23 0.03 43 1009.7
20220515192201 68 341 2.0 5.0 0.00 0.23 0.03 45 1009.8
20220515191201 67 4 3.0 4.0 0.00 0.23 0.03 46 1009.9
20220515190201 66 10 3.0 6.0 0.00 0.23 0.03 47 1010.0
20220515185201 66 348 3.0 9.0 0.00 0.33 0.03 46 1010.2
20220515184201 66 337 2.0 9.0 0.00 0.33 0.03 47 1010.2
20220515183201 66 20 3.0 8.0 0.00 0.33 0.03 46 1010.1